sensor_id;sensor_type;location;lat;lon;timestamp;P1;durP1;ratioP1;P2;durP2;ratioP2
50267;SDS011;36153;50.960;6.220;2023-02-28T00:00:38;2.63;;;2.10;;
50267;SDS011;36153;50.960;6.220;2023-02-28T00:03:40;6.53;;;2.80;;
50267;SDS011;36153;50.960;6.220;2023-02-28T00:06:42;6.50;;;3.00;;
50267;SDS011;36153;50.960;6.220;2023-02-28T00:09:43;4.28;;;3.25;;
50267;SDS011;36153;50.960;6.220;2023-02-28T00:12:44;3.42;;;2.80;;
50267;SDS011;36153;50.960;6.220;2023-02-28T00:15:46;5.03;;;3.05;;
50267;SDS011;36153;50.960;6.220;2023-02-28T00:18:48;4.75;;;3.25;;
50267;SDS011;36153;50.960;6.220;2023-02-28T00:21:50;3.53;;;2.42;;
50267;SDS011;36153;50.960;6.220;2023-02-28T00:24:51;7.03;;;2.55;;
50267;SDS011;36153;50.960;6.220;2023-02-28T00:27:53;4.35;;;3.00;;
50267;SDS011;36153;50.960;6.220;2023-02-28T00:30:54;6.28;;;2.65;;
50267;SDS011;36153;50.960;6.220;2023-02-28T00:33:57;8.73;;;2.80;;
50267;SDS011;36153;50.960;6.220;2023-02-28T00:36:59;3.25;;;2.60;;
50267;SDS011;36153;50.960;6.220;2023-02-28T00:40:01;3.28;;;2.45;;
50267;SDS011;36153;50.960;6.220;2023-02-28T00:43:04;4.10;;;2.65;;
50267;SDS011;36153;50.960;6.220;2023-02-28T00:46:05;7.82;;;3.30;;
50267;SDS011;36153;50.960;6.220;2023-02-28T00:49:05;3.63;;;2.25;;
50267;SDS011;36153;50.960;6.220;2023-02-28T00:52:06;6.65;;;2.50;;
50267;SDS011;36153;50.960;6.220;2023-02-28T00:55:06;5.63;;;2.90;;
50267;SDS011;36153;50.960;6.220;2023-02-28T00:58:07;6.78;;;3.10;;
50267;SDS011;36153;50.960;6.220;2023-02-28T01:01:07;3.15;;;2.25;;
50267;SDS011;36153;50.960;6.220;2023-02-28T01:04:07;3.42;;;2.58;;
50267;SDS011;36153;50.960;6.220;2023-02-28T01:07:08;5.47;;;2.60;;
50267;SDS011;36153;50.960;6.220;2023-02-28T01:10:08;4.32;;;2.90;;
50267;SDS011;36153;50.960;6.220;2023-02-28T01:13:09;5.82;;;2.97;;
50267;SDS011;36153;50.960;6.220;2023-02-28T01:16:10;3.00;;;2.22;;
50267;SDS011;36153;50.960;6.220;2023-02-28T01:19:11;3.38;;;2.72;;
50267;SDS011;36153;50.960;6.220;2023-02-28T01:22:12;5.38;;;3.00;;
50267;SDS011;36153;50.960;6.220;2023-02-28T01:25:12;2.75;;;1.90;;
50267;SDS011;36153;50.960;6.220;2023-02-28T01:28:13;4.20;;;2.78;;
50267;SDS011;36153;50.960;6.220;2023-02-28T01:31:13;3.63;;;2.53;;
50267;SDS011;36153;50.960;6.220;2023-02-28T01:34:14;3.53;;;2.05;;
50267;SDS011;36153;50.960;6.220;2023-02-28T01:37:14;4.55;;;2.58;;
50267;SDS011;36153;50.960;6.220;2023-02-28T01:40:15;11.05;;;2.40;;
50267;SDS011;36153;50.960;6.220;2023-02-28T01:43:26;4.72;;;2.47;;
50267;SDS011;36153;50.960;6.220;2023-02-28T01:46:27;3.50;;;2.22;;
50267;SDS011;36153;50.960;6.220;2023-02-28T01:49:28;4.93;;;2.42;;
50267;SDS011;36153;50.960;6.220;2023-02-28T01:52:29;5.43;;;2.22;;
50267;SDS011;36153;50.960;6.220;2023-02-28T01:55:30;2.83;;;2.17;;
50267;SDS011;36153;50.960;6.220;2023-02-28T01:58:32;9.52;;;2.85;;
50267;SDS011;36153;50.960;6.220;2023-02-28T02:01:34;4.20;;;2.40;;
50267;SDS011;36153;50.960;6.220;2023-02-28T02:04:37;3.25;;;1.77;;
50267;SDS011;36153;50.960;6.220;2023-02-28T02:07:45;3.38;;;2.08;;
50267;SDS011;36153;50.960;6.220;2023-02-28T02:10:54;3.67;;;2.25;;
50267;SDS011;36153;50.960;6.220;2023-02-28T02:27:39;3.63;;;2.13;;
50267;SDS011;36153;50.960;6.220;2023-02-28T02:31:04;2.88;;;2.05;;
50267;SDS011;36153;50.960;6.220;2023-02-28T02:34:26;4.65;;;2.63;;
50267;SDS011;36153;50.960;6.220;2023-02-28T02:40:43;3.90;;;2.65;;
50267;SDS011;36153;50.960;6.220;2023-02-28T02:43:51;2.42;;;2.22;;
50267;SDS011;36153;50.960;6.220;2023-02-28T02:46:55;3.03;;;2.22;;
50267;SDS011;36153;50.960;6.220;2023-02-28T02:50:01;6.88;;;2.42;;
50267;SDS011;36153;50.960;6.220;2023-02-28T02:53:05;4.78;;;2.08;;
50267;SDS011;36153;50.960;6.220;2023-02-28T02:56:08;3.42;;;2.45;;
50267;SDS011;36153;50.960;6.220;2023-02-28T02:59:12;3.72;;;2.00;;
50267;SDS011;36153;50.960;6.220;2023-02-28T03:02:15;2.88;;;2.28;;
50267;SDS011;36153;50.960;6.220;2023-02-28T03:05:19;5.80;;;2.08;;
50267;SDS011;36153;50.960;6.220;2023-02-28T03:08:23;3.78;;;2.60;;
50267;SDS011;36153;50.960;6.220;2023-02-28T03:11:25;4.05;;;2.33;;
50267;SDS011;36153;50.960;6.220;2023-02-28T03:27:59;3.00;;;2.22;;
50267;SDS011;36153;50.960;6.220;2023-02-28T03:31:16;2.80;;;2.30;;
50267;SDS011;36153;50.960;6.220;2023-02-28T03:34:32;2.75;;;2.30;;
50267;SDS011;36153;50.960;6.220;2023-02-28T03:37:40;6.60;;;4.28;;
50267;SDS011;36153;50.960;6.220;2023-02-28T03:40:48;4.07;;;2.83;;
50267;SDS011;36153;50.960;6.220;2023-02-28T03:43:56;4.85;;;3.10;;
50267;SDS011;36153;50.960;6.220;2023-02-28T03:47:05;5.00;;;3.10;;
50267;SDS011;36153;50.960;6.220;2023-02-28T03:50:11;4.85;;;3.28;;
50267;SDS011;36153;50.960;6.220;2023-02-28T03:53:35;4.18;;;3.10;;
50267;SDS011;36153;50.960;6.220;2023-02-28T03:56:41;6.05;;;3.58;;
50267;SDS011;36153;50.960;6.220;2023-02-28T03:59:47;7.15;;;4.10;;
50267;SDS011;36153;50.960;6.220;2023-02-28T04:02:56;6.85;;;4.60;;
50267;SDS011;36153;50.960;6.220;2023-02-28T04:05:57;6.80;;;3.15;;
50267;SDS011;36153;50.960;6.220;2023-02-28T04:08:58;4.45;;;3.22;;
50267;SDS011;36153;50.960;6.220;2023-02-28T04:11:59;6.03;;;3.90;;
50267;SDS011;36153;50.960;6.220;2023-02-28T04:15:00;4.63;;;3.58;;
50267;SDS011;36153;50.960;6.220;2023-02-28T04:18:00;6.60;;;4.32;;
50267;SDS011;36153;50.960;6.220;2023-02-28T04:21:00;6.18;;;3.65;;
50267;SDS011;36153;50.960;6.220;2023-02-28T04:24:01;7.55;;;4.45;;
50267;SDS011;36153;50.960;6.220;2023-02-28T04:27:02;7.53;;;4.32;;
50267;SDS011;36153;50.960;6.220;2023-02-28T04:30:03;7.63;;;4.07;;
50267;SDS011;36153;50.960;6.220;2023-02-28T04:33:04;6.20;;;4.22;;
50267;SDS011;36153;50.960;6.220;2023-02-28T04:36:05;6.35;;;3.97;;
50267;SDS011;36153;50.960;6.220;2023-02-28T04:39:08;5.55;;;4.00;;
50267;SDS011;36153;50.960;6.220;2023-02-28T04:42:10;5.78;;;4.45;;
50267;SDS011;36153;50.960;6.220;2023-02-28T04:45:11;7.25;;;4.07;;
50267;SDS011;36153;50.960;6.220;2023-02-28T04:48:11;5.90;;;4.18;;
50267;SDS011;36153;50.960;6.220;2023-02-28T04:51:12;5.47;;;4.53;;
50267;SDS011;36153;50.960;6.220;2023-02-28T04:54:14;7.40;;;4.30;;
50267;SDS011;36153;50.960;6.220;2023-02-28T04:57:16;5.93;;;3.80;;
50267;SDS011;36153;50.960;6.220;2023-02-28T05:00:16;5.80;;;3.83;;
50267;SDS011;36153;50.960;6.220;2023-02-28T05:03:17;6.00;;;4.47;;
50267;SDS011;36153;50.960;6.220;2023-02-28T05:06:18;7.07;;;4.22;;
50267;SDS011;36153;50.960;6.220;2023-02-28T05:09:20;4.93;;;3.83;;
50267;SDS011;36153;50.960;6.220;2023-02-28T05:12:20;6.30;;;4.47;;
50267;SDS011;36153;50.960;6.220;2023-02-28T05:15:20;11.52;;;4.60;;
50267;SDS011;36153;50.960;6.220;2023-02-28T05:18:21;5.60;;;3.90;;
50267;SDS011;36153;50.960;6.220;2023-02-28T05:21:26;8.68;;;4.90;;
50267;SDS011;36153;50.960;6.220;2023-02-28T05:24:39;8.18;;;3.55;;
50267;SDS011;36153;50.960;6.220;2023-02-28T05:27:39;6.18;;;3.60;;
50267;SDS011;36153;50.960;6.220;2023-02-28T05:30:39;5.65;;;4.35;;
50267;SDS011;36153;50.960;6.220;2023-02-28T05:33:40;5.88;;;3.45;;
50267;SDS011;36153;50.960;6.220;2023-02-28T05:36:40;6.25;;;3.72;;
50267;SDS011;36153;50.960;6.220;2023-02-28T05:39:41;6.53;;;4.03;;
50267;SDS011;36153;50.960;6.220;2023-02-28T05:42:42;10.70;;;4.85;;
50267;SDS011;36153;50.960;6.220;2023-02-28T05:45:43;5.13;;;3.10;;
50267;SDS011;36153;50.960;6.220;2023-02-28T05:48:45;5.40;;;3.80;;
50267;SDS011;36153;50.960;6.220;2023-02-28T05:51:47;4.60;;;3.88;;
50267;SDS011;36153;50.960;6.220;2023-02-28T05:54:48;3.90;;;2.95;;
50267;SDS011;36153;50.960;6.220;2023-02-28T05:57:48;5.88;;;2.97;;
50267;SDS011;36153;50.960;6.220;2023-02-28T06:00:48;7.43;;;4.57;;
50267;SDS011;36153;50.960;6.220;2023-02-28T06:03:49;5.35;;;3.28;;
50267;SDS011;36153;50.960;6.220;2023-02-28T06:06:49;5.55;;;3.20;;
50267;SDS011;36153;50.960;6.220;2023-02-28T06:09:50;5.13;;;3.38;;
50267;SDS011;36153;50.960;6.220;2023-02-28T06:12:51;3.97;;;1.77;;
50267;SDS011;36153;50.960;6.220;2023-02-28T06:15:51;3.08;;;2.45;;
50267;SDS011;36153;50.960;6.220;2023-02-28T06:18:52;5.40;;;2.80;;
50267;SDS011;36153;50.960;6.220;2023-02-28T06:21:53;5.53;;;3.15;;
50267;SDS011;36153;50.960;6.220;2023-02-28T06:24:54;10.73;;;3.65;;
50267;SDS011;36153;50.960;6.220;2023-02-28T06:27:56;8.27;;;2.92;;
50267;SDS011;36153;50.960;6.220;2023-02-28T06:30:57;3.78;;;3.13;;
50267;SDS011;36153;50.960;6.220;2023-02-28T06:33:57;13.32;;;3.65;;
50267;SDS011;36153;50.960;6.220;2023-02-28T06:36:58;7.53;;;4.20;;
50267;SDS011;36153;50.960;6.220;2023-02-28T06:40:02;4.82;;;3.63;;
50267;SDS011;36153;50.960;6.220;2023-02-28T06:43:03;4.40;;;2.97;;
50267;SDS011;36153;50.960;6.220;2023-02-28T06:46:05;5.50;;;2.45;;
50267;SDS011;36153;50.960;6.220;2023-02-28T06:49:06;4.30;;;2.45;;
50267;SDS011;36153;50.960;6.220;2023-02-28T06:52:08;5.53;;;3.30;;
50267;SDS011;36153;50.960;6.220;2023-02-28T06:55:09;3.33;;;2.63;;
50267;SDS011;36153;50.960;6.220;2023-02-28T06:58:10;3.65;;;2.97;;
50267;SDS011;36153;50.960;6.220;2023-02-28T07:01:19;6.53;;;3.60;;
50267;SDS011;36153;50.960;6.220;2023-02-28T07:04:23;6.68;;;2.70;;
50267;SDS011;36153;50.960;6.220;2023-02-28T07:07:31;6.25;;;3.10;;
50267;SDS011;36153;50.960;6.220;2023-02-28T07:10:32;4.07;;;2.90;;
50267;SDS011;36153;50.960;6.220;2023-02-28T07:17:09;3.80;;;2.72;;
50267;SDS011;36153;50.960;6.220;2023-02-28T07:20:38;3.83;;;2.47;;
50267;SDS011;36153;50.960;6.220;2023-02-28T07:23:56;4.55;;;3.33;;
50267;SDS011;36153;50.960;6.220;2023-02-28T07:27:05;4.03;;;2.97;;
50267;SDS011;36153;50.960;6.220;2023-02-28T07:30:06;3.63;;;2.70;;
50267;SDS011;36153;50.960;6.220;2023-02-28T07:33:07;4.13;;;2.83;;
50267;SDS011;36153;50.960;6.220;2023-02-28T09:09:13;5.53;;;2.05;;
50267;SDS011;36153;50.960;6.220;2023-02-28T09:12:14;4.78;;;2.55;;
50267;SDS011;36153;50.960;6.220;2023-02-28T09:15:14;3.83;;;1.85;;
50267;SDS011;36153;50.960;6.220;2023-02-28T09:18:14;2.35;;;1.75;;
50267;SDS011;36153;50.960;6.220;2023-02-28T09:21:16;2.65;;;2.15;;
50267;SDS011;36153;50.960;6.220;2023-02-28T09:24:18;2.97;;;2.03;;
50267;SDS011;36153;50.960;6.220;2023-02-28T09:27:19;3.58;;;1.77;;
50267;SDS011;36153;50.960;6.220;2023-02-28T09:30:20;3.03;;;1.83;;
50267;SDS011;36153;50.960;6.220;2023-02-28T09:33:20;2.05;;;1.70;;
50267;SDS011;36153;50.960;6.220;2023-02-28T09:36:22;2.50;;;1.42;;
50267;SDS011;36153;50.960;6.220;2023-02-28T09:39:24;1.92;;;1.30;;
50267;SDS011;36153;50.960;6.220;2023-02-28T09:42:32;1.58;;;1.15;;
50267;SDS011;36153;50.960;6.220;2023-02-28T09:45:35;2.00;;;1.75;;
50267;SDS011;36153;50.960;6.220;2023-02-28T09:54:43;2.03;;;1.75;;
50267;SDS011;36153;50.960;6.220;2023-02-28T09:57:44;2.63;;;1.60;;
50267;SDS011;36153;50.960;6.220;2023-02-28T10:00:55;1.75;;;1.38;;
50267;SDS011;36153;50.960;6.220;2023-02-28T10:04:03;1.80;;;0.93;;
50267;SDS011;36153;50.960;6.220;2023-02-28T10:10:48;1.65;;;1.55;;
50267;SDS011;36153;50.960;6.220;2023-02-28T10:13:54;2.85;;;1.08;;
50267;SDS011;36153;50.960;6.220;2023-02-28T10:17:10;2.83;;;1.35;;
50267;SDS011;36153;50.960;6.220;2023-02-28T10:20:17;3.05;;;1.27;;
50267;SDS011;36153;50.960;6.220;2023-02-28T10:26:24;2.00;;;1.15;;
50267;SDS011;36153;50.960;6.220;2023-02-28T10:29:28;2.17;;;1.95;;
50267;SDS011;36153;50.960;6.220;2023-02-28T10:32:33;1.70;;;1.40;;
50267;SDS011;36153;50.960;6.220;2023-02-28T10:35:35;2.03;;;1.38;;
50267;SDS011;36153;50.960;6.220;2023-02-28T10:42:38;1.80;;;1.70;;
50267;SDS011;36153;50.960;6.220;2023-02-28T10:49:00;1.95;;;1.45;;
50267;SDS011;36153;50.960;6.220;2023-02-28T10:52:07;1.85;;;1.48;;
50267;SDS011;36153;50.960;6.220;2023-02-28T10:55:19;2.72;;;1.60;;
50267;SDS011;36153;50.960;6.220;2023-02-28T10:58:23;1.65;;;1.50;;
50267;SDS011;36153;50.960;6.220;2023-02-28T11:01:34;2.40;;;1.63;;
50267;SDS011;36153;50.960;6.220;2023-02-28T11:04:35;3.03;;;1.35;;
50267;SDS011;36153;50.960;6.220;2023-02-28T11:07:40;5.18;;;1.95;;
50267;SDS011;36153;50.960;6.220;2023-02-28T11:14:20;1.95;;;1.58;;
50267;SDS011;36153;50.960;6.220;2023-02-28T11:17:27;4.43;;;2.47;;
50267;SDS011;36153;50.960;6.220;2023-02-28T11:20:31;2.20;;;1.60;;
50267;SDS011;36153;50.960;6.220;2023-02-28T11:23:33;2.63;;;2.00;;
50267;SDS011;36153;50.960;6.220;2023-02-28T11:26:38;3.78;;;2.10;;
50267;SDS011;36153;50.960;6.220;2023-02-28T11:29:46;2.17;;;1.73;;
50267;SDS011;36153;50.960;6.220;2023-02-28T11:32:48;2.92;;;2.05;;
50267;SDS011;36153;50.960;6.220;2023-02-28T11:35:49;2.05;;;1.90;;
50267;SDS011;36153;50.960;6.220;2023-02-28T11:38:55;2.50;;;1.83;;
50267;SDS011;36153;50.960;6.220;2023-02-28T11:55:53;2.72;;;2.10;;
50267;SDS011;36153;50.960;6.220;2023-02-28T12:02:26;6.60;;;2.05;;
50267;SDS011;36153;50.960;6.220;2023-02-28T12:05:33;3.25;;;2.35;;
50267;SDS011;36153;50.960;6.220;2023-02-28T12:08:47;2.28;;;1.90;;
50267;SDS011;36153;50.960;6.220;2023-02-28T12:18:42;3.13;;;2.30;;
50267;SDS011;36153;50.960;6.220;2023-02-28T12:21:52;4.45;;;2.40;;
50267;SDS011;36153;50.960;6.220;2023-02-28T12:28:26;3.08;;;2.03;;
50267;SDS011;36153;50.960;6.220;2023-02-28T12:31:36;3.03;;;2.42;;
50267;SDS011;36153;50.960;6.220;2023-02-28T12:34:50;3.13;;;2.17;;
50267;SDS011;36153;50.960;6.220;2023-02-28T12:37:57;5.15;;;2.75;;
50267;SDS011;36153;50.960;6.220;2023-02-28T12:41:03;16.25;;;7.85;;
50267;SDS011;36153;50.960;6.220;2023-02-28T12:44:11;17.30;;;9.15;;
50267;SDS011;36153;50.960;6.220;2023-02-28T12:47:38;19.77;;;7.22;;
50267;SDS011;36153;50.960;6.220;2023-02-28T12:50:42;4.45;;;2.67;;
50267;SDS011;36153;50.960;6.220;2023-02-28T13:00:00;13.73;;;6.38;;
50267;SDS011;36153;50.960;6.220;2023-02-28T13:06:27;3.38;;;2.50;;
50267;SDS011;36153;50.960;6.220;2023-02-28T13:09:58;4.63;;;2.55;;
50267;SDS011;36153;50.960;6.220;2023-02-28T13:13:01;7.55;;;3.85;;
50267;SDS011;36153;50.960;6.220;2023-02-28T13:16:05;6.00;;;3.65;;
50267;SDS011;36153;50.960;6.220;2023-02-28T13:38:09;3.97;;;3.00;;
50267;SDS011;36153;50.960;6.220;2023-02-28T13:44:29;4.38;;;2.88;;
50267;SDS011;36153;50.960;6.220;2023-02-28T13:50:38;3.97;;;3.13;;
50267;SDS011;36153;50.960;6.220;2023-02-28T13:53:50;4.82;;;3.80;;
50267;SDS011;36153;50.960;6.220;2023-02-28T14:04:06;4.72;;;3.45;;
50267;SDS011;36153;50.960;6.220;2023-02-28T14:07:26;4.28;;;3.53;;
50267;SDS011;36153;50.960;6.220;2023-02-28T14:10:31;5.60;;;3.72;;
50267;SDS011;36153;50.960;6.220;2023-02-28T14:13:41;2.97;;;2.50;;
50267;SDS011;36153;50.960;6.220;2023-02-28T14:16:47;4.82;;;2.90;;
50267;SDS011;36153;50.960;6.220;2023-02-28T14:19:50;5.10;;;2.75;;
50267;SDS011;36153;50.960;6.220;2023-02-28T14:22:58;5.75;;;3.05;;
50267;SDS011;36153;50.960;6.220;2023-02-28T14:36:18;5.93;;;2.90;;
50267;SDS011;36153;50.960;6.220;2023-02-28T14:39:23;3.60;;;3.20;;
50267;SDS011;36153;50.960;6.220;2023-02-28T14:42:30;4.55;;;3.08;;
50267;SDS011;36153;50.960;6.220;2023-02-28T14:45:33;3.33;;;2.90;;
50267;SDS011;36153;50.960;6.220;2023-02-28T14:48:37;6.00;;;3.03;;
50267;SDS011;36153;50.960;6.220;2023-02-28T14:51:38;3.38;;;2.40;;
50267;SDS011;36153;50.960;6.220;2023-02-28T14:54:39;3.95;;;3.00;;
50267;SDS011;36153;50.960;6.220;2023-02-28T14:57:41;4.13;;;2.70;;
50267;SDS011;36153;50.960;6.220;2023-02-28T15:03:57;6.15;;;3.17;;
50267;SDS011;36153;50.960;6.220;2023-02-28T15:07:10;3.85;;;2.83;;
50267;SDS011;36153;50.960;6.220;2023-02-28T15:10:21;2.78;;;2.33;;
50267;SDS011;36153;50.960;6.220;2023-02-28T15:17:08;3.47;;;2.53;;
50267;SDS011;36153;50.960;6.220;2023-02-28T15:20:20;4.00;;;2.47;;
50267;SDS011;36153;50.960;6.220;2023-02-28T15:23:21;3.22;;;2.33;;
50267;SDS011;36153;50.960;6.220;2023-02-28T15:26:24;3.17;;;2.28;;
50267;SDS011;36153;50.960;6.220;2023-02-28T15:29:30;3.70;;;2.47;;
50267;SDS011;36153;50.960;6.220;2023-02-28T15:32:38;3.10;;;2.65;;
50267;SDS011;36153;50.960;6.220;2023-02-28T15:35:39;3.42;;;2.42;;
50267;SDS011;36153;50.960;6.220;2023-02-28T15:38:40;3.25;;;2.58;;
50267;SDS011;36153;50.960;6.220;2023-02-28T15:41:42;3.17;;;2.50;;
50267;SDS011;36153;50.960;6.220;2023-02-28T15:44:42;4.15;;;2.10;;
50267;SDS011;36153;50.960;6.220;2023-02-28T15:47:44;3.58;;;2.92;;
50267;SDS011;36153;50.960;6.220;2023-02-28T15:51:48;4.43;;;2.50;;
50267;SDS011;36153;50.960;6.220;2023-02-28T15:54:22;6.55;;;2.45;;
50267;SDS011;36153;50.960;6.220;2023-02-28T15:57:27;4.60;;;2.38;;
50267;SDS011;36153;50.960;6.220;2023-02-28T16:00:30;3.60;;;2.55;;
50267;SDS011;36153;50.960;6.220;2023-02-28T16:03:37;2.72;;;2.33;;
50267;SDS011;36153;50.960;6.220;2023-02-28T16:06:41;15.45;;;7.80;;
50267;SDS011;36153;50.960;6.220;2023-02-28T16:09:42;5.07;;;3.30;;
50267;SDS011;36153;50.960;6.220;2023-02-28T16:12:42;3.78;;;2.83;;
50267;SDS011;36153;50.960;6.220;2023-02-28T16:15:43;4.05;;;2.78;;
50267;SDS011;36153;50.960;6.220;2023-02-28T16:18:43;4.47;;;2.75;;
50267;SDS011;36153;50.960;6.220;2023-02-28T16:21:44;3.88;;;2.60;;
50267;SDS011;36153;50.960;6.220;2023-02-28T16:24:45;6.15;;;3.55;;
50267;SDS011;36153;50.960;6.220;2023-02-28T16:27:47;6.05;;;3.53;;
50267;SDS011;36153;50.960;6.220;2023-02-28T16:30:52;2.58;;;2.10;;
50267;SDS011;36153;50.960;6.220;2023-02-28T16:33:53;4.97;;;2.85;;
50267;SDS011;36153;50.960;6.220;2023-02-28T16:36:54;3.55;;;2.88;;
50267;SDS011;36153;50.960;6.220;2023-02-28T16:39:54;3.47;;;3.15;;
50267;SDS011;36153;50.960;6.220;2023-02-28T16:42:56;15.55;;;3.00;;
50267;SDS011;36153;50.960;6.220;2023-02-28T16:45:59;4.18;;;2.70;;
50267;SDS011;36153;50.960;6.220;2023-02-28T16:49:01;7.43;;;3.25;;
50267;SDS011;36153;50.960;6.220;2023-02-28T16:52:01;5.30;;;3.90;;
50267;SDS011;36153;50.960;6.220;2023-02-28T16:55:02;4.20;;;2.92;;
50267;SDS011;36153;50.960;6.220;2023-02-28T16:58:02;7.22;;;3.78;;
50267;SDS011;36153;50.960;6.220;2023-02-28T17:01:03;8.80;;;4.10;;
50267;SDS011;36153;50.960;6.220;2023-02-28T17:04:04;7.18;;;4.07;;
50267;SDS011;36153;50.960;6.220;2023-02-28T17:07:04;4.55;;;3.30;;
50267;SDS011;36153;50.960;6.220;2023-02-28T17:10:26;5.47;;;3.47;;
50267;SDS011;36153;50.960;6.220;2023-02-28T17:13:26;3.97;;;2.65;;
50267;SDS011;36153;50.960;6.220;2023-02-28T17:16:30;3.20;;;2.53;;
50267;SDS011;36153;50.960;6.220;2023-02-28T17:19:32;4.50;;;3.67;;
50267;SDS011;36153;50.960;6.220;2023-02-28T17:22:34;5.40;;;3.00;;
50267;SDS011;36153;50.960;6.220;2023-02-28T17:25:34;5.72;;;3.10;;
50267;SDS011;36153;50.960;6.220;2023-02-28T17:28:35;4.95;;;3.60;;
50267;SDS011;36153;50.960;6.220;2023-02-28T17:31:35;4.97;;;3.17;;
50267;SDS011;36153;50.960;6.220;2023-02-28T17:34:38;5.00;;;3.53;;
50267;SDS011;36153;50.960;6.220;2023-02-28T17:37:39;4.15;;;3.50;;
50267;SDS011;36153;50.960;6.220;2023-02-28T17:40:39;6.80;;;4.78;;
50267;SDS011;36153;50.960;6.220;2023-02-28T17:43:40;5.25;;;3.63;;
50267;SDS011;36153;50.960;6.220;2023-02-28T17:46:40;5.38;;;3.60;;
50267;SDS011;36153;50.960;6.220;2023-02-28T17:49:42;6.50;;;3.80;;
50267;SDS011;36153;50.960;6.220;2023-02-28T17:52:42;6.78;;;3.53;;
50267;SDS011;36153;50.960;6.220;2023-02-28T17:55:43;6.50;;;4.82;;
50267;SDS011;36153;50.960;6.220;2023-02-28T17:58:43;6.38;;;4.10;;
50267;SDS011;36153;50.960;6.220;2023-02-28T18:01:43;8.43;;;4.00;;
50267;SDS011;36153;50.960;6.220;2023-02-28T18:04:44;8.00;;;4.63;;
50267;SDS011;36153;50.960;6.220;2023-02-28T18:07:44;5.55;;;3.75;;
50267;SDS011;36153;50.960;6.220;2023-02-28T18:10:45;7.65;;;3.83;;
50267;SDS011;36153;50.960;6.220;2023-02-28T18:13:49;6.97;;;4.53;;
50267;SDS011;36153;50.960;6.220;2023-02-28T18:16:52;4.57;;;3.25;;
50267;SDS011;36153;50.960;6.220;2023-02-28T18:19:54;8.13;;;4.32;;
50267;SDS011;36153;50.960;6.220;2023-02-28T18:22:54;6.93;;;3.90;;
50267;SDS011;36153;50.960;6.220;2023-02-28T18:25:54;4.65;;;3.40;;
50267;SDS011;36153;50.960;6.220;2023-02-28T18:28:55;6.13;;;3.83;;
50267;SDS011;36153;50.960;6.220;2023-02-28T18:31:55;5.43;;;3.72;;
50267;SDS011;36153;50.960;6.220;2023-02-28T18:34:56;5.05;;;4.05;;
50267;SDS011;36153;50.960;6.220;2023-02-28T18:37:56;6.00;;;4.10;;
50267;SDS011;36153;50.960;6.220;2023-02-28T18:40:58;7.57;;;4.05;;
50267;SDS011;36153;50.960;6.220;2023-02-28T18:44:00;6.05;;;4.10;;
50267;SDS011;36153;50.960;6.220;2023-02-28T18:47:03;9.15;;;4.05;;
50267;SDS011;36153;50.960;6.220;2023-02-28T18:50:04;6.95;;;4.57;;
50267;SDS011;36153;50.960;6.220;2023-02-28T18:53:05;7.30;;;4.28;;
50267;SDS011;36153;50.960;6.220;2023-02-28T18:56:06;8.82;;;4.95;;
50267;SDS011;36153;50.960;6.220;2023-02-28T18:59:07;4.55;;;3.70;;
50267;SDS011;36153;50.960;6.220;2023-02-28T19:02:08;7.20;;;4.53;;
50267;SDS011;36153;50.960;6.220;2023-02-28T19:05:09;6.65;;;4.93;;
50267;SDS011;36153;50.960;6.220;2023-02-28T19:08:11;6.57;;;4.50;;
50267;SDS011;36153;50.960;6.220;2023-02-28T19:11:13;5.53;;;3.45;;
50267;SDS011;36153;50.960;6.220;2023-02-28T19:14:15;6.47;;;3.95;;
50267;SDS011;36153;50.960;6.220;2023-02-28T19:17:15;4.40;;;3.53;;
50267;SDS011;36153;50.960;6.220;2023-02-28T19:20:16;5.55;;;4.35;;
50267;SDS011;36153;50.960;6.220;2023-02-28T19:23:16;5.30;;;3.80;;
50267;SDS011;36153;50.960;6.220;2023-02-28T19:26:19;5.85;;;4.57;;
50267;SDS011;36153;50.960;6.220;2023-02-28T19:29:21;7.88;;;5.07;;
50267;SDS011;36153;50.960;6.220;2023-02-28T19:32:22;6.60;;;5.00;;
50267;SDS011;36153;50.960;6.220;2023-02-28T19:35:22;9.82;;;4.75;;
50267;SDS011;36153;50.960;6.220;2023-02-28T19:38:22;8.75;;;5.45;;
50267;SDS011;36153;50.960;6.220;2023-02-28T19:41:23;5.18;;;4.07;;
50267;SDS011;36153;50.960;6.220;2023-02-28T19:44:23;7.13;;;4.90;;
50267;SDS011;36153;50.960;6.220;2023-02-28T19:47:24;5.75;;;4.05;;
50267;SDS011;36153;50.960;6.220;2023-02-28T19:50:24;7.75;;;5.25;;
50267;SDS011;36153;50.960;6.220;2023-02-28T19:53:24;6.80;;;4.97;;
50267;SDS011;36153;50.960;6.220;2023-02-28T19:56:25;6.97;;;4.82;;
50267;SDS011;36153;50.960;6.220;2023-02-28T19:59:26;6.40;;;4.35;;
50267;SDS011;36153;50.960;6.220;2023-02-28T20:02:27;4.82;;;3.55;;
50267;SDS011;36153;50.960;6.220;2023-02-28T20:05:28;5.57;;;3.90;;
50267;SDS011;36153;50.960;6.220;2023-02-28T20:08:28;5.10;;;3.80;;
50267;SDS011;36153;50.960;6.220;2023-02-28T20:11:28;7.95;;;4.63;;
50267;SDS011;36153;50.960;6.220;2023-02-28T20:14:29;9.48;;;4.57;;
50267;SDS011;36153;50.960;6.220;2023-02-28T20:17:29;6.45;;;4.53;;
50267;SDS011;36153;50.960;6.220;2023-02-28T20:20:30;7.00;;;5.32;;
50267;SDS011;36153;50.960;6.220;2023-02-28T20:23:30;12.32;;;5.35;;
50267;SDS011;36153;50.960;6.220;2023-02-28T20:26:30;8.38;;;4.25;;
50267;SDS011;36153;50.960;6.220;2023-02-28T20:29:32;6.63;;;4.43;;
50267;SDS011;36153;50.960;6.220;2023-02-28T20:32:33;5.38;;;4.03;;
50267;SDS011;36153;50.960;6.220;2023-02-28T20:35:37;10.07;;;4.55;;
50267;SDS011;36153;50.960;6.220;2023-02-28T20:38:38;6.25;;;4.15;;
50267;SDS011;36153;50.960;6.220;2023-02-28T20:41:40;7.05;;;3.78;;
50267;SDS011;36153;50.960;6.220;2023-02-28T20:44:41;6.80;;;4.53;;
50267;SDS011;36153;50.960;6.220;2023-02-28T20:47:41;7.00;;;4.80;;
50267;SDS011;36153;50.960;6.220;2023-02-28T20:50:47;6.50;;;4.47;;
50267;SDS011;36153;50.960;6.220;2023-02-28T20:53:48;10.57;;;4.13;;
50267;SDS011;36153;50.960;6.220;2023-02-28T20:56:49;7.32;;;4.72;;
50267;SDS011;36153;50.960;6.220;2023-02-28T20:59:49;6.38;;;3.83;;
50267;SDS011;36153;50.960;6.220;2023-02-28T21:02:49;5.72;;;3.88;;
50267;SDS011;36153;50.960;6.220;2023-02-28T21:05:50;5.43;;;3.70;;
50267;SDS011;36153;50.960;6.220;2023-02-28T21:08:50;4.72;;;3.95;;
50267;SDS011;36153;50.960;6.220;2023-02-28T21:11:52;8.02;;;4.43;;
50267;SDS011;36153;50.960;6.220;2023-02-28T21:14:52;10.00;;;4.63;;
50267;SDS011;36153;50.960;6.220;2023-02-28T21:17:53;8.90;;;4.80;;
50267;SDS011;36153;50.960;6.220;2023-02-28T21:20:58;6.63;;;4.47;;
50267;SDS011;36153;50.960;6.220;2023-02-28T21:23:59;9.75;;;5.38;;
50267;SDS011;36153;50.960;6.220;2023-02-28T21:27:00;5.82;;;3.97;;
50267;SDS011;36153;50.960;6.220;2023-02-28T21:30:01;9.35;;;4.68;;
50267;SDS011;36153;50.960;6.220;2023-02-28T21:33:04;7.93;;;4.90;;
50267;SDS011;36153;50.960;6.220;2023-02-28T21:39:17;10.70;;;4.57;;
50267;SDS011;36153;50.960;6.220;2023-02-28T21:42:20;6.80;;;4.05;;
50267;SDS011;36153;50.960;6.220;2023-02-28T21:45:21;8.85;;;4.15;;
50267;SDS011;36153;50.960;6.220;2023-02-28T21:48:21;7.03;;;4.25;;
50267;SDS011;36153;50.960;6.220;2023-02-28T21:51:22;8.55;;;4.47;;
50267;SDS011;36153;50.960;6.220;2023-02-28T21:54:30;10.80;;;4.18;;
50267;SDS011;36153;50.960;6.220;2023-02-28T21:57:30;7.82;;;3.95;;
50267;SDS011;36153;50.960;6.220;2023-02-28T22:00:31;6.85;;;3.35;;
50267;SDS011;36153;50.960;6.220;2023-02-28T22:03:31;6.07;;;4.18;;
50267;SDS011;36153;50.960;6.220;2023-02-28T22:06:33;6.95;;;4.45;;
50267;SDS011;36153;50.960;6.220;2023-02-28T22:09:38;7.97;;;4.45;;
50267;SDS011;36153;50.960;6.220;2023-02-28T22:12:39;8.18;;;5.38;;
50267;SDS011;36153;50.960;6.220;2023-02-28T22:15:39;6.22;;;4.00;;
50267;SDS011;36153;50.960;6.220;2023-02-28T22:18:39;6.57;;;4.88;;
50267;SDS011;36153;50.960;6.220;2023-02-28T22:21:40;6.75;;;4.43;;
50267;SDS011;36153;50.960;6.220;2023-02-28T22:24:41;6.35;;;4.18;;